sensor_id;sensor_type;location;lat;lon;timestamp;pressure;altitude;pressure_sealevel;temperature;humidity
72116;BME280;59991;52.140;5.428;2023-07-20T00:00:21;101467.28;;;16.45;93.88
72116;BME280;59991;52.140;5.428;2023-07-20T00:00:53;101464.13;;;16.46;93.77
72116;BME280;59991;52.140;5.428;2023-07-20T00:01:25;101464.13;;;16.46;93.52
72116;BME280;59991;52.140;5.428;2023-07-20T00:01:56;101462.94;;;16.47;93.61
72116;BME280;59991;52.140;5.428;2023-07-20T00:02:28;101464.91;;;16.47;93.63
72116;BME280;59991;52.140;5.428;2023-07-20T00:03:12;101467.25;;;16.48;93.27
72116;BME280;59991;52.140;5.428;2023-07-20T00:03:48;101463.72;;;16.48;93.35
72116;BME280;59991;52.140;5.428;2023-07-20T00:04:26;101467.66;;;16.47;93.54
72116;BME280;59991;52.140;5.428;2023-07-20T00:04:58;101463.34;;;16.46;93.27
72116;BME280;59991;52.140;5.428;2023-07-20T00:05:29;101473.56;;;16.45;93.23
72116;BME280;59991;52.140;5.428;2023-07-20T00:06:01;101464.13;;;16.46;93.58
72116;BME280;59991;52.140;5.428;2023-07-20T00:06:32;101457.84;;;16.46;93.71
72116;BME280;59991;52.140;5.428;2023-07-20T00:07:04;101465.69;;;16.47;93.83
72116;BME280;59991;52.140;5.428;2023-07-20T00:07:36;101465.69;;;16.47;94.44
72116;BME280;59991;52.140;5.428;2023-07-20T00:08:07;101461.38;;;16.46;94.72
72116;BME280;59991;52.140;5.428;2023-07-20T00:08:39;101462.16;;;16.47;94.22
72116;BME280;59991;52.140;5.428;2023-07-20T00:09:10;101464.13;;;16.46;94.36
72116;BME280;59991;52.140;5.428;2023-07-20T00:09:42;101462.16;;;16.47;94.19
72116;BME280;59991;52.140;5.428;2023-07-20T00:10:14;101464.13;;;16.46;94.31
72116;BME280;59991;52.140;5.428;2023-07-20T00:10:45;101463.72;;;16.48;93.70
72116;BME280;59991;52.140;5.428;2023-07-20T00:11:17;101470.00;;;16.48;93.60
72116;BME280;59991;52.140;5.428;2023-07-20T00:11:50;101464.13;;;16.46;93.99
72116;BME280;59991;52.140;5.428;2023-07-20T00:12:22;101463.34;;;16.46;93.65
72116;BME280;59991;52.140;5.428;2023-07-20T00:12:53;101467.28;;;16.45;94.18
72116;BME280;59991;52.140;5.428;2023-07-20T00:13:25;101455.88;;;16.46;93.92
72116;BME280;59991;52.140;5.428;2023-07-20T00:13:56;101462.16;;;16.43;94.47
72116;BME280;59991;52.140;5.428;2023-07-20T00:14:28;101457.06;;;16.42;94.59
72116;BME280;59991;52.140;5.428;2023-07-20T00:15:00;101462.97;;;16.40;94.17
72116;BME280;59991;52.140;5.428;2023-07-20T00:15:31;101458.25;;;16.41;94.19
72116;BME280;59991;52.140;5.428;2023-07-20T00:16:03;101466.50;;;16.41;93.83
72116;BME280;59991;52.140;5.428;2023-07-20T00:16:34;101468.88;;;16.42;93.75
72116;BME280;59991;52.140;5.428;2023-07-20T00:17:06;101464.94;;;16.43;93.85
72116;BME280;59991;52.140;5.428;2023-07-20T00:17:38;101466.50;;;16.44;94.00
72116;BME280;59991;52.140;5.428;2023-07-20T00:18:11;101461.00;;;16.44;94.47
72116;BME280;59991;52.140;5.428;2023-07-20T00:18:42;101470.03;;;16.45;93.91
72116;BME280;59991;52.140;5.428;2023-07-20T00:19:14;101466.09;;;16.46;93.75
72116;BME280;59991;52.140;5.428;2023-07-20T00:19:45;101460.59;;;16.46;93.97
72116;BME280;59991;52.140;5.428;2023-07-20T00:20:17;101466.50;;;16.44;93.85
72116;BME280;59991;52.140;5.428;2023-07-20T00:20:49;101462.16;;;16.43;94.12
72116;BME280;59991;52.140;5.428;2023-07-20T00:21:22;101466.88;;;16.43;94.07
72116;BME280;59991;52.140;5.428;2023-07-20T00:21:54;101457.84;;;16.42;94.65
72116;BME280;59991;52.140;5.428;2023-07-20T00:22:26;101464.13;;;16.43;94.25
72116;BME280;59991;52.140;5.428;2023-07-20T00:22:58;101456.28;;;16.41;94.40
72116;BME280;59991;52.140;5.428;2023-07-20T00:23:29;101457.06;;;16.42;94.15
72116;BME280;59991;52.140;5.428;2023-07-20T00:24:03;101463.34;;;16.42;94.50
72116;BME280;59991;52.140;5.428;2023-07-20T00:24:34;101459.81;;;16.42;94.74
72116;BME280;59991;52.140;5.428;2023-07-20T00:25:06;101461.38;;;16.43;94.92
72116;BME280;59991;52.140;5.428;2023-07-20T00:25:38;101461.00;;;16.44;95.04
72116;BME280;59991;52.140;5.428;2023-07-20T00:26:09;101461.78;;;16.45;94.75
72116;BME280;59991;52.140;5.428;2023-07-20T00:26:41;101459.81;;;16.45;95.09
72116;BME280;59991;52.140;5.428;2023-07-20T00:27:12;101463.34;;;16.46;94.25
72116;BME280;59991;52.140;5.428;2023-07-20T00:27:44;101464.53;;;16.45;94.37
72116;BME280;59991;52.140;5.428;2023-07-20T00:28:15;101461.38;;;16.46;94.23
72116;BME280;59991;52.140;5.428;2023-07-20T00:28:50;101468.44;;;16.47;94.33
72116;BME280;59991;52.140;5.428;2023-07-20T00:29:22;101461.38;;;16.46;94.14
72116;BME280;59991;52.140;5.428;2023-07-20T00:29:54;101463.34;;;16.46;94.15
72116;BME280;59991;52.140;5.428;2023-07-20T00:30:25;101459.41;;;16.43;94.24
72116;BME280;59991;52.140;5.428;2023-07-20T00:30:59;101462.97;;;16.44;94.39
72116;BME280;59991;52.140;5.428;2023-07-20T00:31:31;101461.00;;;16.44;93.75
72116;BME280;59991;52.140;5.428;2023-07-20T00:32:03;101473.97;;;16.44;93.79
72116;BME280;59991;52.140;5.428;2023-07-20T00:32:36;101462.97;;;16.44;93.40
72116;BME280;59991;52.140;5.428;2023-07-20T00:33:10;101468.06;;;16.45;93.49
72116;BME280;59991;52.140;5.428;2023-07-20T00:33:42;101466.50;;;16.44;93.37
72116;BME280;59991;52.140;5.428;2023-07-20T00:34:13;101459.41;;;16.43;93.25
72116;BME280;59991;52.140;5.428;2023-07-20T00:34:45;101463.75;;;16.44;92.94
72116;BME280;59991;52.140;5.428;2023-07-20T00:35:16;101461.38;;;16.43;93.46
72116;BME280;59991;52.140;5.428;2023-07-20T00:35:48;101460.59;;;16.42;93.33
72116;BME280;59991;52.140;5.428;2023-07-20T00:36:19;101465.31;;;16.42;93.33
72116;BME280;59991;52.140;5.428;2023-07-20T00:36:51;101459.44;;;16.40;93.53
72116;BME280;59991;52.140;5.428;2023-07-20T00:37:23;101465.34;;;16.38;93.50
72116;BME280;59991;52.140;5.428;2023-07-20T00:37:54;101464.56;;;16.38;93.32
72116;BME280;59991;52.140;5.428;2023-07-20T00:38:26;101462.19;;;16.36;93.78
72116;BME280;59991;52.140;5.428;2023-07-20T00:38:57;101462.19;;;16.36;93.67
72116;BME280;59991;52.140;5.428;2023-07-20T00:39:29;101463.41;;;16.35;93.54
72116;BME280;59991;52.140;5.428;2023-07-20T00:40:01;101461.06;;;16.34;93.59
72116;BME280;59991;52.140;5.428;2023-07-20T00:40:37;101458.72;;;16.32;93.34
72116;BME280;59991;52.140;5.428;2023-07-20T00:41:08;101455.56;;;16.30;93.27
72116;BME280;59991;52.140;5.428;2023-07-20T00:41:40;101458.31;;;16.30;93.19
72116;BME280;59991;52.140;5.428;2023-07-20T00:42:11;101458.72;;;16.29;93.17
72116;BME280;59991;52.140;5.428;2023-07-20T00:42:43;101457.16;;;16.28;92.83
72116;BME280;59991;52.140;5.428;2023-07-20T00:43:15;101450.88;;;16.27;93.05
72116;BME280;59991;52.140;5.428;2023-07-20T00:43:46;101450.47;;;16.29;93.21
72116;BME280;59991;52.140;5.428;2023-07-20T00:44:18;101453.63;;;16.27;93.20
72116;BME280;59991;52.140;5.428;2023-07-20T00:44:49;101455.19;;;16.28;93.06
72116;BME280;59991;52.140;5.428;2023-07-20T00:45:21;101453.22;;;16.25;92.36
72116;BME280;59991;52.140;5.428;2023-07-20T00:45:53;101457.94;;;16.24;92.67
72116;BME280;59991;52.140;5.428;2023-07-20T00:46:25;101455.59;;;16.23;93.06
72116;BME280;59991;52.140;5.428;2023-07-20T00:46:57;101463.47;;;16.21;92.98
72116;BME280;59991;52.140;5.428;2023-07-20T00:47:30;101463.84;;;16.19;93.29
72116;BME280;59991;52.140;5.428;2023-07-20T00:48:02;101465.03;;;16.18;93.26
72116;BME280;59991;52.140;5.428;2023-07-20T00:48:35;101463.47;;;16.17;92.67
72116;BME280;59991;52.140;5.428;2023-07-20T00:49:07;101460.38;;;16.15;93.06
72116;BME280;59991;52.140;5.428;2023-07-20T00:49:39;101465.44;;;16.17;92.87
72116;BME280;59991;52.140;5.428;2023-07-20T00:50:11;101459.94;;;16.17;92.89
72116;BME280;59991;52.140;5.428;2023-07-20T00:50:43;101463.91;;;16.16;92.88
72116;BME280;59991;52.140;5.428;2023-07-20T00:51:15;101462.69;;;16.17;92.78
72116;BME280;59991;52.140;5.428;2023-07-20T00:51:48;101467.41;;;16.16;92.85
72116;BME280;59991;52.140;5.428;2023-07-20T00:52:21;101462.69;;;16.17;92.58
72116;BME280;59991;52.140;5.428;2023-07-20T00:52:55;101461.16;;;16.16;92.87
72116;BME280;59991;52.140;5.428;2023-07-20T00:53:28;101466.66;;;16.16;92.80
72116;BME280;59991;52.140;5.428;2023-07-20T00:53:59;101466.66;;;16.16;92.83
72116;BME280;59991;52.140;5.428;2023-07-20T00:54:31;101460.38;;;16.15;92.97
72116;BME280;59991;52.140;5.428;2023-07-20T00:55:03;101463.50;;;16.14;93.11
72116;BME280;59991;52.140;5.428;2023-07-20T00:55:34;101466.25;;;16.14;93.09
72116;BME280;59991;52.140;5.428;2023-07-20T00:56:06;101459.97;;;16.13;92.91
72116;BME280;59991;52.140;5.428;2023-07-20T00:56:40;101463.13;;;16.12;92.86
72116;BME280;59991;52.140;5.428;2023-07-20T00:57:14;101465.88;;;16.12;92.59
72116;BME280;59991;52.140;5.428;2023-07-20T00:57:46;101463.53;;;16.10;92.94
72116;BME280;59991;52.140;5.428;2023-07-20T00:58:18;101461.16;;;16.09;93.13
72116;BME280;59991;52.140;5.428;2023-07-20T00:58:50;101467.84;;;16.08;92.91
72116;BME280;59991;52.140;5.428;2023-07-20T00:59:23;101463.53;;;16.07;93.31
72116;BME280;59991;52.140;5.428;2023-07-20T00:59:55;101466.28;;;16.07;93.40
72116;BME280;59991;52.140;5.428;2023-07-20T01:00:26;101464.72;;;16.06;93.50
72116;BME280;59991;52.140;5.428;2023-07-20T01:00:58;101464.31;;;16.04;93.10
72116;BME280;59991;52.140;5.428;2023-07-20T01:01:30;101458.81;;;16.04;92.93
72116;BME280;59991;52.140;5.428;2023-07-20T01:02:02;101453.31;;;16.04;92.87
72116;BME280;59991;52.140;5.428;2023-07-20T01:02:34;101458.03;;;16.03;93.66
72116;BME280;59991;52.140;5.428;2023-07-20T01:03:05;101466.69;;;16.02;93.51
72116;BME280;59991;52.140;5.428;2023-07-20T01:03:37;101463.56;;;16.00;92.85
72116;BME280;59991;52.140;5.428;2023-07-20T01:04:09;101462.75;;;15.99;93.01
72116;BME280;59991;52.140;5.428;2023-07-20T01:04:40;101463.56;;;16.00;92.92
72116;BME280;59991;52.140;5.428;2023-07-20T01:05:13;101465.91;;;15.98;93.02
72116;BME280;59991;52.140;5.428;2023-07-20T01:05:56;101463.59;;;15.96;93.09
72116;BME280;59991;52.140;5.428;2023-07-20T01:06:43;101463.59;;;15.96;92.94
72116;BME280;59991;52.140;5.428;2023-07-20T01:07:32;101463.19;;;15.94;92.70
72116;BME280;59991;52.140;5.428;2023-07-20T01:09:21;101471.47;;;15.91;92.80
72116;BME280;59991;52.140;5.428;2023-07-20T01:10:11;101466.34;;;15.89;92.76
72116;BME280;59991;52.140;5.428;2023-07-20T01:11:38;101469.50;;;15.87;93.08
72116;BME280;59991;52.140;5.428;2023-07-20T01:12:22;101475.00;;;15.87;93.23
72116;BME280;59991;52.140;5.428;2023-07-20T01:12:57;101475.78;;;15.88;93.21
72116;BME280;59991;52.140;5.428;2023-07-20T01:13:29;101469.91;;;15.86;93.25
72116;BME280;59991;52.140;5.428;2023-07-20T01:14:01;101470.69;;;15.86;93.13
72116;BME280;59991;52.140;5.428;2023-07-20T01:14:34;101468.72;;;15.87;93.16
72116;BME280;59991;52.140;5.428;2023-07-20T01:15:06;101471.47;;;15.87;93.25
72116;BME280;59991;52.140;5.428;2023-07-20T01:15:39;101465.19;;;15.86;92.95
72116;BME280;59991;52.140;5.428;2023-07-20T01:16:10;101467.53;;;15.84;93.70
72116;BME280;59991;52.140;5.428;2023-07-20T01:16:42;101468.31;;;15.85;93.45
72116;BME280;59991;52.140;5.428;2023-07-20T01:17:14;101462.03;;;15.84;93.40
72116;BME280;59991;52.140;5.428;2023-07-20T01:17:45;101471.47;;;15.83;93.44
72116;BME280;59991;52.140;5.428;2023-07-20T01:18:17;101459.69;;;15.83;93.14
72116;BME280;59991;52.140;5.428;2023-07-20T01:18:49;101467.16;;;15.82;93.44
72116;BME280;59991;52.140;5.428;2023-07-20T01:19:21;101467.94;;;15.83;94.09
72116;BME280;59991;52.140;5.428;2023-07-20T01:19:52;101461.25;;;15.80;94.26
72116;BME280;59991;52.140;5.428;2023-07-20T01:20:24;101470.69;;;15.79;93.90
72116;BME280;59991;52.140;5.428;2023-07-20T01:21:04;101461.25;;;15.80;93.91
72116;BME280;59991;52.140;5.428;2023-07-20T01:21:47;101466.38;;;15.78;94.08
72116;BME280;59991;52.140;5.428;2023-07-20T01:22:54;101462.84;;;15.78;93.88
72116;BME280;59991;52.140;5.428;2023-07-20T01:26:14;101456.59;;;15.70;93.88
72116;BME280;59991;52.140;5.428;2023-07-20T01:26:58;101467.97;;;15.69;94.19
72116;BME280;59991;52.140;5.428;2023-07-20T01:30:01;101459.72;;;15.65;94.42
72116;BME280;59991;52.140;5.428;2023-07-20T01:30:56;101474.66;;;15.64;94.30
72116;BME280;59991;52.140;5.428;2023-07-20T01:31:33;101460.53;;;15.62;94.22
72116;BME280;59991;52.140;5.428;2023-07-20T01:32:05;101468.78;;;15.62;94.50
72116;BME280;59991;52.140;5.428;2023-07-20T01:32:40;101465.25;;;15.62;94.57
72116;BME280;59991;52.140;5.428;2023-07-20T01:33:15;101470.75;;;15.62;94.41
72116;BME280;59991;52.140;5.428;2023-07-20T01:33:48;101468.00;;;15.62;94.78
72116;BME280;59991;52.140;5.428;2023-07-20T01:34:22;101467.19;;;15.61;94.89
72116;BME280;59991;52.140;5.428;2023-07-20T01:34:55;101462.88;;;15.60;94.82
72116;BME280;59991;52.140;5.428;2023-07-20T01:35:30;101467.19;;;15.61;94.51
72116;BME280;59991;52.140;5.428;2023-07-20T01:36:02;101469.16;;;15.61;94.01
72116;BME280;59991;52.140;5.428;2023-07-20T01:36:36;101468.00;;;15.62;93.92
72116;BME280;59991;52.140;5.428;2023-07-20T01:37:09;101469.94;;;15.61;94.06
72116;BME280;59991;52.140;5.428;2023-07-20T01:37:46;101471.13;;;15.60;94.45
72116;BME280;59991;52.140;5.428;2023-07-20T01:38:18;101468.38;;;15.60;94.02
72116;BME280;59991;52.140;5.428;2023-07-20T01:38:51;101471.13;;;15.60;94.00
72116;BME280;59991;52.140;5.428;2023-07-20T01:39:23;101468.38;;;15.60;94.09
72116;BME280;59991;52.140;5.428;2023-07-20T01:39:55;101469.94;;;15.61;93.54
72116;BME280;59991;52.140;5.428;2023-07-20T01:40:27;101468.78;;;15.62;93.98
72116;BME280;59991;52.140;5.428;2023-07-20T01:40:59;101467.59;;;15.63;93.75
72116;BME280;59991;52.140;5.428;2023-07-20T01:41:30;101466.81;;;15.63;93.72
72116;BME280;59991;52.140;5.428;2023-07-20T01:42:02;101463.28;;;15.62;93.94
72116;BME280;59991;52.140;5.428;2023-07-20T01:42:34;101473.09;;;15.63;93.69
72116;BME280;59991;52.140;5.428;2023-07-20T01:43:05;101466.03;;;15.62;93.26
72116;BME280;59991;52.140;5.428;2023-07-20T01:43:37;101468.78;;;15.62;93.50
72116;BME280;59991;52.140;5.428;2023-07-20T01:44:08;101464.44;;;15.61;93.30
72116;BME280;59991;52.140;5.428;2023-07-20T01:44:40;101468.78;;;15.62;92.80
72116;BME280;59991;52.140;5.428;2023-07-20T01:45:11;101463.66;;;15.61;92.72
72116;BME280;59991;52.140;5.428;2023-07-20T01:45:43;101468.00;;;15.62;92.63
72116;BME280;59991;52.140;5.428;2023-07-20T01:46:15;101461.69;;;15.61;92.67
72116;BME280;59991;52.140;5.428;2023-07-20T01:46:47;101463.66;;;15.61;92.72
72116;BME280;59991;52.140;5.428;2023-07-20T01:47:19;101465.63;;;15.60;93.02
72116;BME280;59991;52.140;5.428;2023-07-20T01:47:50;101468.38;;;15.60;92.57
72116;BME280;59991;52.140;5.428;2023-07-20T01:48:22;101470.34;;;15.60;92.58
72116;BME280;59991;52.140;5.428;2023-07-20T01:48:54;101472.31;;;15.59;92.75
72116;BME280;59991;52.140;5.428;2023-07-20T01:49:25;101463.31;;;15.59;92.77
72116;BME280;59991;52.140;5.428;2023-07-20T01:49:57;101463.31;;;15.59;92.23
72116;BME280;59991;52.140;5.428;2023-07-20T01:50:29;101468.03;;;15.58;92.43
72116;BME280;59991;52.140;5.428;2023-07-20T01:51:00;101465.28;;;15.58;92.43
72116;BME280;59991;52.140;5.428;2023-07-20T01:51:32;101464.88;;;15.56;92.78
72116;BME280;59991;52.140;5.428;2023-07-20T01:52:03;101466.84;;;15.56;92.71
72116;BME280;59991;52.140;5.428;2023-07-20T01:52:35;101466.84;;;15.56;92.64
72116;BME280;59991;52.140;5.428;2023-07-20T01:53:07;101468.00;;;15.54;92.17
72116;BME280;59991;52.140;5.428;2023-07-20T01:53:38;101467.22;;;15.54;92.41
72116;BME280;59991;52.140;5.428;2023-07-20T01:54:10;101468.78;;;15.55;92.41
72116;BME280;59991;52.140;5.428;2023-07-20T01:54:42;101471.13;;;15.53;92.46
72116;BME280;59991;52.140;5.428;2023-07-20T01:55:13;101468.38;;;15.53;92.40
72116;BME280;59991;52.140;5.428;2023-07-20T01:55:45;101473.09;;;15.52;92.46
72116;BME280;59991;52.140;5.428;2023-07-20T01:56:16;101470.75;;;15.51;92.61
72116;BME280;59991;52.140;5.428;2023-07-20T01:56:48;101478.59;;;15.49;92.56
72116;BME280;59991;52.140;5.428;2023-07-20T01:57:19;101474.28;;;15.48;92.60
72116;BME280;59991;52.140;5.428;2023-07-20T01:57:52;101478.19;;;15.47;92.64
72116;BME280;59991;52.140;5.428;2023-07-20T01:58:23;101482.13;;;15.46;91.99
72116;BME280;59991;52.140;5.428;2023-07-20T01:58:55;101482.13;;;15.46;92.18
72116;BME280;59991;52.140;5.428;2023-07-20T01:59:27;101482.91;;;15.46;92.00
72116;BME280;59991;52.140;5.428;2023-07-20T01:59:58;101483.31;;;15.45;92.15
72116;BME280;59991;52.140;5.428;2023-07-20T02:00:30;101477.81;;;15.45;92.06
72116;BME280;59991;52.140;5.428;2023-07-20T02:01:02;101480.16;;;15.43;92.00
72116;BME280;59991;52.140;5.428;2023-07-20T02:01:34;101485.66;;;15.43;92.05
72116;BME280;59991;52.140;5.428;2023-07-20T02:02:09;101483.69;;;15.43;92.12
72116;BME280;59991;52.140;5.428;2023-07-20T02:02:41;101478.59;;;15.42;91.75
72116;BME280;59991;52.140;5.428;2023-07-20T02:03:13;101483.31;;;15.41;92.34
72116;BME280;59991;52.140;5.428;2023-07-20T02:03:45;101484.47;;;15.40;92.54
72116;BME280;59991;52.140;5.428;2023-07-20T02:04:16;101480.94;;;15.40;92.52
72116;BME280;59991;52.140;5.428;2023-07-20T02:04:48;101478.63;;;15.38;92.11
72116;BME280;59991;52.140;5.428;2023-07-20T02:05:20;101484.91;;;15.39;92.44
72116;BME280;59991;52.140;5.428;2023-07-20T02:05:51;101479.41;;;15.39;92.38
72116;BME280;59991;52.140;5.428;2023-07-20T02:06:23;101486.44;;;15.40;92.83
72116;BME280;59991;52.140;5.428;2023-07-20T02:06:55;101483.69;;;15.40;92.64
72116;BME280;59991;52.140;5.428;2023-07-20T02:07:26;101479.41;;;15.39;92.93
72116;BME280;59991;52.140;5.428;2023-07-20T02:07:58;101475.88;;;15.38;93.01
72116;BME280;59991;52.140;5.428;2023-07-20T02:08:29;101477.84;;;15.38;93.00
72116;BME280;59991;52.140;5.428;2023-07-20T02:09:01;101486.47;;;15.36;93.12
72116;BME280;59991;52.140;5.428;2023-07-20T02:09:32;101484.13;;;15.35;93.34
72116;BME280;59991;52.140;5.428;2023-07-20T02:10:04;101472.72;;;15.33;93.24
72116;BME280;59991;52.140;5.428;2023-07-20T02:10:36;101483.72;;;15.33;93.58
72116;BME280;59991;52.140;5.428;2023-07-20T02:11:07;101478.63;;;15.31;93.40
72116;BME280;59991;52.140;5.428;2023-07-20T02:11:41;101473.91;;;15.32;93.13
72116;BME280;59991;52.140;5.428;2023-07-20T02:12:13;101479.41;;;15.32;93.48
72116;BME280;59991;52.140;5.428;2023-07-20T02:12:44;101477.03;;;15.30;93.67
72116;BME280;59991;52.140;5.428;2023-07-20T02:13:16;101480.97;;;15.29;93.56
72116;BME280;59991;52.140;5.428;2023-07-20T02:13:48;101476.25;;;15.30;93.37
72116;BME280;59991;52.140;5.428;2023-07-20T02:14:19;101484.50;;;15.30;93.95
72116;BME280;59991;52.140;5.428;2023-07-20T02:14:51;101477.03;;;15.30;93.97
72116;BME280;59991;52.140;5.428;2023-07-20T02:15:23;101477.03;;;15.30;94.45
72116;BME280;59991;52.140;5.428;2023-07-20T02:15:54;101482.16;;;15.32;94.04
72116;BME280;59991;52.140;5.428;2023-07-20T02:16:26;101480.56;;;15.31;94.26
72116;BME280;59991;52.140;5.428;2023-07-20T02:16:57;101484.09;;;15.31;94.43
72116;BME280;59991;52.140;5.428;2023-07-20T02:17:30;101480.56;;;15.31;94.36
72116;BME280;59991;52.140;5.428;2023-07-20T02:18:02;101476.25;;;15.30;94.99
72116;BME280;59991;52.140;5.428;2023-07-20T02:18:34;101477.03;;;15.30;94.91
72116;BME280;59991;52.140;5.428;2023-07-20T02:19:08;101476.66;;;15.28;95.09
72116;BME280;59991;52.140;5.428;2023-07-20T02:19:40;101476.25;;;15.26;95.05
72116;BME280;59991;52.140;5.428;2023-07-20T02:20:12;101480.97;;;15.26;95.41
72116;BME280;59991;52.140;5.428;2023-07-20T02:20:44;101478.22;;;15.26;95.49
72116;BME280;59991;52.140;5.428;2023-07-20T02:21:16;101476.25;;;15.26;95.70
72116;BME280;59991;52.140;5.428;2023-07-20T02:21:47;101477.03;;;15.27;95.84
72116;BME280;59991;52.140;5.428;2023-07-20T02:22:19;101483.31;;;15.27;96.22
72116;BME280;59991;52.140;5.428;2023-07-20T02:22:50;101473.13;;;15.28;95.96
72116;BME280;59991;52.140;5.428;2023-07-20T02:23:22;101479.41;;;15.28;95.59
72116;BME280;59991;52.140;5.428;2023-07-20T02:23:53;101479.41;;;15.28;95.72
72116;BME280;59991;52.140;5.428;2023-07-20T02:24:25;101479.41;;;15.28;95.58
72116;BME280;59991;52.140;5.428;2023-07-20T02:24:59;101479.41;;;15.28;95.83
72116;BME280;59991;52.140;5.428;2023-07-20T02:25:31;101479.00;;;15.30;95.58
72116;BME280;59991;52.140;5.428;2023-07-20T02:26:02;101477.03;;;15.30;95.71
72116;BME280;59991;52.140;5.428;2023-07-20T02:26:33;101477.03;;;15.30;95.34
72116;BME280;59991;52.140;5.428;2023-07-20T02:27:05;101478.63;;;15.31;95.85
72116;BME280;59991;52.140;5.428;2023-07-20T02:27:38;101482.16;;;15.32;95.56
72116;BME280;59991;52.140;5.428;2023-07-20T02:28:13;101477.03;;;15.34;95.50
72116;BME280;59991;52.140;5.428;2023-07-20T02:28:45;101476.25;;;15.33;95.57
72116;BME280;59991;52.140;5.428;2023-07-20T02:29:16;101477.44;;;15.32;95.43
72116;BME280;59991;52.140;5.428;2023-07-20T02:29:48;101480.19;;;15.32;95.34
72116;BME280;59991;52.140;5.428;2023-07-20T02:30:19;101478.63;;;15.31;95.44
72116;BME280;59991;52.140;5.428;2023-07-20T02:30:51;101483.31;;;15.31;95.33
72116;BME280;59991;52.140;5.428;2023-07-20T02:31:22;101477.81;;;15.31;95.79
72116;BME280;59991;52.140;5.428;2023-07-20T02:31:54;101481.75;;;15.30;95.81
72116;BME280;59991;52.140;5.428;2023-07-20T02:32:26;101480.19;;;15.29;95.44
72116;BME280;59991;52.140;5.428;2023-07-20T02:32:57;101483.72;;;15.29;95.23
72116;BME280;59991;52.140;5.428;2023-07-20T02:33:30;101481.75;;;15.30;95.38
72116;BME280;59991;52.140;5.428;2023-07-20T02:34:01;101476.25;;;15.30;95.34
72116;BME280;59991;52.140;5.428;2023-07-20T02:34:32;101478.59;;;15.28;95.14
72116;BME280;59991;52.140;5.428;2023-07-20T02:35:05;101479.41;;;15.28;95.26
72116;BME280;59991;52.140;5.428;2023-07-20T02:35:37;101476.66;;;15.28;95.08
72116;BME280;59991;52.140;5.428;2023-07-20T02:36:08;101477.03;;;15.27;94.55
72116;BME280;59991;52.140;5.428;2023-07-20T02:36:40;101480.56;;;15.27;94.37
72116;BME280;59991;52.140;5.428;2023-07-20T02:37:13;101479.78;;;15.27;94.43
72116;BME280;59991;52.140;5.428;2023-07-20T02:37:45;101477.81;;;15.27;94.26
72116;BME280;59991;52.140;5.428;2023-07-20T02:38:16;101480.56;;;15.27;94.10
72116;BME280;59991;52.140;5.428;2023-07-20T02:38:48;101480.97;;;15.26;94.86
72116;BME280;59991;52.140;5.428;2023-07-20T02:39:19;101483.72;;;15.26;94.93
72116;BME280;59991;52.140;5.428;2023-07-20T02:39:51;101473.91;;;15.25;94.38
72116;BME280;59991;52.140;5.428;2023-07-20T02:40:22;101477.03;;;15.23;94.25
72116;BME280;59991;52.140;5.428;2023-07-20T02:40:54;101479.00;;;15.23;93.77
72116;BME280;59991;52.140;5.428;2023-07-20T02:41:25;101473.50;;;15.23;94.07
72116;BME280;59991;52.140;5.428;2023-07-20T02:41:57;101479.00;;;15.23;94.26
72116;BME280;59991;52.140;5.428;2023-07-20T02:42:28;101475.47;;;15.22;94.02
72116;BME280;59991;52.140;5.428;2023-07-20T02:43:00;101480.97;;;15.22;94.10
72116;BME280;59991;52.140;5.428;2023-07-20T02:43:32;101476.66;;;15.21;94.39
72116;BME280;59991;52.140;5.428;2023-07-20T02:44:04;101482.56;;;15.19;94.31
72116;BME280;59991;52.140;5.428;2023-07-20T02:44:35;101480.19;;;15.18;94.43
72116;BME280;59991;52.140;5.428;2023-07-20T02:45:07;101473.13;;;15.17;94.55
72116;BME280;59991;52.140;5.428;2023-07-20T02:45:41;101470.38;;;15.17;94.27
72116;BME280;59991;52.140;5.428;2023-07-20T02:46:14;101470.78;;;15.15;94.33
72116;BME280;59991;52.140;5.428;2023-07-20T02:46:45;101471.56;;;15.16;94.20
72116;BME280;59991;52.140;5.428;2023-07-20T02:47:17;101470.00;;;15.15;94.18
72116;BME280;59991;52.140;5.428;2023-07-20T02:47:48;101470.78;;;15.15;94.07
72116;BME280;59991;52.140;5.428;2023-07-20T02:48:20;101473.53;;;15.15;93.89
72116;BME280;59991;52.140;5.428;2023-07-20T02:48:51;101470.38;;;15.13;93.99
72116;BME280;59991;52.140;5.428;2023-07-20T02:49:23;101473.91;;;15.14;93.95
72116;BME280;59991;52.140;5.428;2023-07-20T02:49:54;101471.97;;;15.14;93.48
72116;BME280;59991;52.140;5.428;2023-07-20T02:50:26;101478.63;;;15.13;93.33
72116;BME280;59991;52.140;5.428;2023-07-20T02:50:57;101473.53;;;15.15;93.55
72116;BME280;59991;52.140;5.428;2023-07-20T02:51:29;101472.75;;;15.15;93.38
72116;BME280;59991;52.140;5.428;2023-07-20T02:52:00;101479.81;;;15.16;93.43
72116;BME280;59991;52.140;5.428;2023-07-20T02:52:31;101484.13;;;15.17;93.49
72116;BME280;59991;52.140;5.428;2023-07-20T02:53:03;101476.28;;;15.15;94.22
72116;BME280;59991;52.140;5.428;2023-07-20T02:53:35;101481.78;;;15.15;94.10
72116;BME280;59991;52.140;5.428;2023-07-20T02:54:07;101480.19;;;15.14;93.41
72116;BME280;59991;52.140;5.428;2023-07-20T02:54:38;101482.94;;;15.14;93.66
72116;BME280;59991;52.140;5.428;2023-07-20T02:55:09;101479.41;;;15.14;93.49
72116;BME280;59991;52.140;5.428;2023-07-20T02:55:41;101481.75;;;15.12;93.33
72116;BME280;59991;52.140;5.428;2023-07-20T02:56:12;101486.47;;;15.11;93.52
72116;BME280;59991;52.140;5.428;2023-07-20T02:56:44;101479.00;;;15.08;93.50
72116;BME280;59991;52.140;5.428;2023-07-20T02:57:15;101484.50;;;15.08;93.43
72116;BME280;59991;52.140;5.428;2023-07-20T02:57:47;101484.88;;;15.07;93.43